Airfield :







YOU CAN JOIN US ON...

 
LOGIN :

Register | Disclaimer

   EN    FR    IT 

 









Legend :    VFR   Marginal VFR   IFR   Intensive IFR   Very Intensive IFR
Visi :
Ceiling :
>= 8 km
>= 3000ft
5 to 8 km
1000 to 3000 ft
1500m to 5 km
500 to 1000 ft
800 to 1500m
200 to 500 ft
< 800m
< 200 ft
Symbols :   Thunderstorms  Fog  Heavy snow  Heavy precipitations  Wind > 20 kt






- Airport Elevation : 38 ft
- IATA code : TAB


TTCP - Crown Point Int.

CURRENT METAR :
  • 232000Z 13013KT 7000 -SHRA VCSH SCT015 SCT036 28/23 Q1012 NOSIG RMK VCSH ALQDS

EXPIRED METARs :
  • 231900Z 11009KT 9999 FEW018 30/24 Q1012 NOSIG
  • 231800Z 09009KT 9999 FEW018 29/25 Q1012 NOSIG

TAF TAF TTCP
Valid from the 23 at 18:00 until the 24 at 18:00 UTC


231600Z 2318/2418 09012KT 9999 SCT025
TEMPO 2321/2403 6000 SHRA SCT015 SCT040
BECMG 2323/2401 00000KT FEW018
TEMPO 2408/2416 5000 SHRA SCT015 SCT035



MET'MAP, your aeronautical weather chart ! - Copyright ORBIFLY December 2007 - Disclaimer

ORBIFLY MET'MAP TEAM :

Programming & Development : Alexandra Zaïnal
Concept & original design : Baudouin d'Aumeries
Assistance for programming : Marc-Olivier Méhu
Technical & hardware support : Manuel Goepfert

Contact : metmap@orbifly.com




SOURCES & CREDITS :

   NOAA